Portada
METAR-TAF:

METAR-TAF

Aeroports :

Udon Thani, Tailàndia

latitud: 17-23N, longitud: 102-48E, altitud: 177 m

Observació

L'informe es va fer fa 2 hores i 58 minuts, a les 13:00 UTC
Vent 3 kt del Oest/Nord-Oest
Temperatura 22°C
Humitat 94%
Pressió 1011 hPa
Visibilitat 10 km o més
Escasses núvols a una alçada de 3000 ft
Cel ennuvolat a una alçada de 6000 ft

METAR: VTUD 191300Z 30003KT 9999 FEW030 BKN060 22/21 Q1011 NOSIG

Hora: 22:58 (15:58 UTC)

Pronòstic

L'informe es va fer fa 4 hores i 58 minuts, a les 11:00 UTC
Pronòstic vàlid del 19 a les 12 UTC al 20 a les 12 UTC
Vent 5 kt del Nord-Est
Visibilitat: 9000 m
Núvols disperses a una alçada de 3000 ft
Cel ennuvolat a una alçada de 8000 ft

TAF: VTUD 191100Z 1912/2012 04005KT 9000 SCT030 BKN080

Observacions i pronòstics meteorològics de més de 4000 aeroports (METAR i TAF).

Les estacions disponibles són els punts grocs i vermells al mapa.

Posi el ratolí al punt desitjat per veure el nom de l'estació.

Feu clic per veure les observacions i els pronòstics meteorològics.

Per canviar el mapa: feu clic els botons verds amb una creu de color negre per apropar; al botó verd amb un guió per allunyar la imatge; o en les fletxes verdes per a mapes adjacents.


METAR-TAF: